Time;durP1;ratioP1;P1;durP2;ratioP2;P2;SDS_P1;SDS_P2;PMS_P1;PMS_P2;Temp;Humidity;BMP_temperature;BMP_pressure;BME280_temperature;BME280_humidity;BME280_pressure;Samples;Min_cycle;Max_cycle;Signal;HPM_P1;HPM_P2
2021/05/01 00:01:09;;;;;;;10.50;5.40;;;;;;;;;;5015387;28;20079;-84
2021/05/01 00:03:35;;;;;;;12.77;5.40;;;;;;;;;;5013220;28;20037;-84
2021/05/01 00:06:01;;;;;;;12.43;5.28;;;;;;;;;;5011817;28;20022;-84
2021/05/01 00:08:28;;;;;;;6.90;4.85;;;;;;;;;;5014130;28;20084;-84
2021/05/01 00:11:01;;;;;;;7.35;4.53;;;11.80;63.60;;;;;;5014388;28;20478;-84
2021/05/01 00:13:27;;;;;;;5.90;4.30;;;;;;;;;;5016249;28;20692;-85
2021/05/01 00:15:53;;;;;;;7.65;4.50;;;;;;;;;;5014208;28;20050;-84
2021/05/01 00:18:19;;;;;;;7.45;4.70;;;;;;;;;;5012592;28;20033;-84
2021/05/01 00:20:46;;;;;;;10.75;4.47;;;;;;;;;;5012962;28;20025;-84
2021/05/01 00:23:12;;;;;;;8.70;4.40;;;;;;;;;;5024904;28;20026;-83
2021/05/01 00:25:38;;;;;;;16.63;4.78;;;;;;;;;;5019995;28;20034;-85
2021/05/01 00:28:04;;;;;;;10.30;4.85;;;;;;;;;;5014136;28;20037;-84
2021/05/01 00:30:30;;;;;;;6.75;4.43;;;;;;;;;;5028457;28;20021;-84
2021/05/01 00:32:56;;;;;;;8.70;4.60;;;;;;;;;;5011305;28;20112;-83
2021/05/01 00:35:23;;;;;;;8.38;4.72;;;;;;;;;;5015963;28;20038;-83
2021/05/01 00:37:49;;;;;;;14.73;5.40;;;;;;;;;;5037980;28;20044;-83
2021/05/01 00:40:15;;;;;;;6.43;4.50;;;;;;;;;;5021593;28;20121;-85
2021/05/01 00:42:41;;;;;;;11.18;4.63;;;;;;;;;;5025125;28;20275;-84
2021/05/01 00:45:07;;;;;;;9.52;5.03;;;;;;;;;;5024222;28;20032;-83
2021/05/01 00:47:33;;;;;;;7.82;4.43;;;;;;;;;;5016536;28;20068;-84
2021/05/01 00:49:59;;;;;;;7.53;4.30;;;;;;;;;;5018047;28;20052;-84
2021/05/01 00:52:26;;;;;;;7.05;4.05;;;;;;;;;;5019522;28;20026;-83
2021/05/01 00:54:52;;;;;;;8.48;4.82;;;;;;;;;;5017855;28;20136;-84
2021/05/01 00:57:18;;;;;;;6.90;3.95;;;;;;;;;;5013556;28;20117;-83
2021/05/01 00:59:44;;;;;;;6.47;3.70;;;;;;;;;;5016719;28;20037;-83
2021/05/01 01:02:12;;;;;;;8.85;5.07;;;;;;;;;;5029209;28;20021;-83
2021/05/01 01:04:38;;;;;;;9.25;4.28;;;;;;;;;;5022092;28;20029;-83
2021/05/01 01:07:04;;;;;;;10.50;4.43;;;;;;;;;;5034244;28;20036;-83
2021/05/01 01:09:30;;;;;;;7.60;4.60;;;;;;;;;;5028986;28;20372;-83
2021/05/01 01:11:56;;;;;;;8.52;4.13;;;;;;;;;;5015208;28;20552;-84
2021/05/01 01:14:22;;;;;;;10.73;4.65;;;;;;;;;;5028518;28;20044;-84
2021/05/01 01:16:48;;;;;;;7.22;3.80;;;;;;;;;;5021899;28;20026;-84
2021/05/01 01:19:15;;;;;;;9.48;4.30;;;;;;;;;;5036299;28;20112;-84
2021/05/01 01:21:42;;;;;;;8.15;4.97;;;11.80;62.30;;;;;;5028943;28;20593;-83
2021/05/01 01:24:09;;;;;;;6.45;4.25;;;11.80;62.90;;;;;;5013703;28;20134;-83
2021/05/01 01:26:36;;;;;;;7.10;4.20;;;11.80;63.10;;;;;;5016753;28;20026;-85
2021/05/01 01:29:02;;;;;;;5.40;4.17;;;;;;;;;;5028372;28;20148;-85
2021/05/01 01:31:28;;;;;;;5.30;3.22;;;;;;;;;;5022597;28;20030;-84
2021/05/01 01:33:54;;;;;;;6.68;3.80;;;;;;;;;;5017084;28;20542;-84
2021/05/01 01:36:20;;;;;;;5.88;4.03;;;;;;;;;;5030330;28;20034;-84
2021/05/01 01:38:46;;;;;;;8.15;4.15;;;;;;;;;;5027281;28;20117;-84
2021/05/01 01:41:11;;;;;;;10.90;5.72;;;;;;;;;;5018875;28;20079;-85
2021/05/01 01:43:38;;;;;;;9.82;4.72;;;;;;;;;;5016257;28;20498;-84
2021/05/01 01:46:04;;;;;;;7.32;4.57;;;;;;;;;;5017896;28;20029;-84
2021/05/01 01:48:30;;;;;;;6.10;3.83;;;;;;;;;;5014703;28;20076;-84
2021/05/01 01:50:56;;;;;;;8.05;4.10;;;;;;;;;;5029105;28;20025;-84
2021/05/01 01:53:25;;;;;;;9.15;3.92;;;;;;;;;;5016628;28;20135;-84
2021/05/01 01:55:52;;;;;;;19.38;5.43;;;;;;;;;;5017729;28;20069;-84
2021/05/01 01:58:19;;;;;;;9.38;4.32;;;11.70;63.50;;;;;;5017652;28;20048;-84
2021/05/01 02:00:46;;;;;;;8.90;4.25;;;11.60;63.40;;;;;;5011816;28;20390;-84
2021/05/01 02:03:14;;;;;;;8.15;4.65;;;;;;;;;;5027179;28;20064;-84
2021/05/01 02:05:41;;;;;;;8.10;4.07;;;;;;;;;;5027481;28;20033;-86
2021/05/01 02:08:06;;;;;;;8.52;4.40;;;;;;;;;;5016921;28;20041;-85
2021/05/01 02:10:32;;;;;;;7.30;4.07;;;;;;;;;;5016594;28;20112;-84
2021/05/01 02:12:58;;;;;;;8.38;4.00;;;;;;;;;;5015418;28;20037;-84
2021/05/01 02:15:25;;;;;;;9.25;4.97;;;12.30;64.00;;;;;;5013673;28;20091;-84
2021/05/01 02:17:55;;;;;;;9.75;5.70;;;11.60;63.90;;;;;;5014137;28;20061;-85
2021/05/01 02:20:26;;;;;;;13.32;6.22;;;11.60;64.00;;;;;;5016039;28;20028;-84
2021/05/01 02:22:52;;;;;;;10.32;5.03;;;;;;;;;;5016432;28;20034;-84
2021/05/01 02:25:19;;;;;;;8.23;4.15;;;;;;;;;;5016623;28;20025;-84
2021/05/01 02:27:45;;;;;;;12.07;5.38;;;;;;;;;;5016536;28;20026;-84
2021/05/01 02:30:13;;;;;;;6.70;3.85;;;11.60;64.20;;;;;;5011558;28;20068;-84
2021/05/01 02:32:39;;;;;;;7.45;4.70;;;;;;;;;;5029761;28;20383;-84
2021/05/01 02:35:08;;;;;;;7.63;4.18;;;11.60;64.10;;;;;;5017434;28;20057;-84
2021/05/01 02:37:35;;;;;;;8.52;4.93;;;;;;;;;;5015736;28;20057;-84
2021/05/01 02:40:01;;;;;;;8.63;3.40;;;;;;;;;;5015756;28;20029;-83
2021/05/01 02:42:27;;;;;;;9.10;5.40;;;;;;;;;;5013277;28;20022;-84
2021/05/01 02:44:53;;;;;;;6.82;4.88;;;;;;;;;;5013225;28;20541;-85
2021/05/01 02:47:19;;;;;;;7.47;4.30;;;;;;;;;;5027617;28;20025;-84
2021/05/01 02:49:45;;;;;;;8.05;4.70;;;;;;;;;;5025300;28;20030;-85
2021/05/01 02:52:11;;;;;;;7.22;5.45;;;;;;;;;;5028821;28;20095;-84
2021/05/01 02:54:37;;;;;;;7.43;4.35;;;;;;;;;;5026906;28;20811;-85
2021/05/01 02:57:03;;;;;;;9.68;4.68;;;;;;;;;;5026757;28;20040;-84
2021/05/01 02:59:29;;;;;;;9.30;4.72;;;;;;;;;;5028999;28;20107;-84
2021/05/01 03:01:55;;;;;;;8.75;4.97;;;;;;;;;;5025279;28;20486;-84
2021/05/01 03:04:21;;;;;;;8.40;5.03;;;;;;;;;;5027276;28;20168;-84
2021/05/01 03:06:47;;;;;;;8.80;4.85;;;;;;;;;;5027245;28;20557;-85
2021/05/01 03:09:14;;;;;;;6.97;5.00;;;;;;;;;;5012674;28;20044;-85
2021/05/01 03:11:40;;;;;;;8.77;4.88;;;;;;;;;;5028326;28;20033;-86
2021/05/01 03:14:06;;;;;;;8.77;5.45;;;;;;;;;;5015566;28;20176;-85
2021/05/01 03:16:32;;;;;;;12.05;6.05;;;;;;;;;;5015752;28;20499;-85
2021/05/01 03:18:58;;;;;;;8.57;4.63;;;;;;;;;;5015387;28;20033;-85
2021/05/01 03:21:24;;;;;;;6.63;4.22;;;;;;;;;;5012236;28;20046;-84
2021/05/01 03:23:51;;;;;;;10.27;5.70;;;;;;;;;;5013392;28;20026;-85
2021/05/01 03:26:17;;;;;;;10.55;4.88;;;;;;;;;;5017926;28;20030;-85
2021/05/01 03:28:44;;;;;;;8.43;5.07;;;;;;;;;;5018297;28;20077;-85
2021/05/01 03:31:10;;;;;;;11.48;4.70;;;;;;;;;;5011031;28;20117;-83
2021/05/01 03:33:36;;;;;;;6.03;4.35;;;;;;;;;;5016554;28;20056;-85
2021/05/01 03:36:02;;;;;;;9.70;5.00;;;;;;;;;;5012385;28;20037;-85
2021/05/01 03:38:28;;;;;;;10.00;5.22;;;;;;;;;;5014854;28;20085;-84
2021/05/01 03:40:54;;;;;;;10.02;5.00;;;;;;;;;;5014801;28;20040;-85
2021/05/01 03:43:20;;;;;;;7.47;4.45;;;;;;;;;;5014817;28;20033;-84
2021/05/01 03:45:47;;;;;;;6.18;4.25;;;;;;;;;;5016170;28;20026;-83
2021/05/01 03:48:13;;;;;;;11.73;4.82;;;;;;;;;;5011514;28;20052;-84
2021/05/01 03:50:39;;;;;;;9.13;4.82;;;;;;;;;;5028990;28;20540;-85
2021/05/01 03:53:05;;;;;;;11.48;5.45;;;;;;;;;;5015682;28;20537;-84
2021/05/01 03:55:31;;;;;;;9.23;4.90;;;;;;;;;;5035681;28;20045;-85
2021/05/01 03:57:57;;;;;;;8.73;4.93;;;;;;;;;;5025269;28;20025;-86
2021/05/01 04:00:24;;;;;;;9.52;3.88;;;;;;;;;;5027815;28;20120;-85
2021/05/01 04:02:50;;;;;;;9.05;6.13;;;11.40;65.80;;;;;;5013193;28;20038;-85
2021/05/01 04:05:16;;;;;;;7.43;4.20;;;;;;;;;;5015368;28;20112;-84
2021/05/01 04:07:42;;;;;;;8.02;4.13;;;;;;;;;;5014468;28;20142;-85
2021/05/01 04:10:08;;;;;;;10.75;4.75;;;;;;;;;;5028498;28;20087;-85
2021/05/01 04:12:34;;;;;;;9.50;4.78;;;;;;;;;;5027630;28;20437;-85
2021/05/01 04:15:00;;;;;;;8.48;4.30;;;;;;;;;;5011771;28;20556;-85
2021/05/01 04:17:26;;;;;;;11.00;4.38;;;;;;;;;;5014162;28;20026;-85
2021/05/01 04:19:53;;;;;;;7.25;4.88;;;11.40;66.50;;;;;;5014454;28;20080;-85
2021/05/01 04:22:22;;;;;;;13.50;5.55;;;11.40;66.50;;;;;;5020100;28;20477;-86
2021/05/01 04:24:48;;;;;;;12.13;6.72;;;11.40;78.40;;;;;;5029621;28;20775;-85
2021/05/01 04:27:14;;;;;;;12.45;5.35;;;;;;;;;;5030463;28;20025;-85
2021/05/01 04:29:40;;;;;;;9.35;4.88;;;;;;;;;;5031953;28;20056;-86
2021/05/01 04:32:07;;;;;;;9.95;5.30;;;;;;;;;;5020215;28;20057;-85
2021/05/01 04:34:32;;;;;;;8.23;4.47;;;;;;;;;;5038017;28;20050;-85
2021/05/01 04:36:59;;;;;;;6.93;4.28;;;;;;;;;;5016834;28;20040;-85
2021/05/01 04:39:25;;;;;;;13.13;5.10;;;11.40;66.20;;;;;;5014887;28;20029;-86
2021/05/01 04:41:52;;;;;;;8.10;5.35;;;11.40;66.60;;;;;;5016126;28;20025;-85
2021/05/01 04:44:19;;;;;;;7.50;3.97;;;;;;;;;;5019707;28;20109;-84
2021/05/01 04:46:45;;;;;;;11.43;4.22;;;;;;;;;;5020033;28;20092;-84
2021/05/01 04:49:11;;;;;;;10.50;5.13;;;;;;;;;;5021417;28;20037;-85
2021/05/01 04:51:37;;;;;;;15.65;5.22;;;;;;;;;;5029118;28;20033;-85
2021/05/01 04:54:03;;;;;;;9.57;5.20;;;11.50;65.20;;;;;;5029372;28;20033;-85
2021/05/01 04:56:30;;;;;;;17.25;7.40;;;;;;;;;;5030244;28;20037;-84
2021/05/01 04:58:56;;;;;;;11.68;5.45;;;;;;;;;;5021593;28;20125;-85
2021/05/01 05:01:22;;;;;;;13.48;5.43;;;;;;;;;;5021616;28;20034;-86
2021/05/01 05:03:48;;;;;;;11.55;5.20;;;;;;;;;;5029338;28;20136;-85
2021/05/01 05:06:14;;;;;;;9.00;5.60;;;;;;;;;;5011883;28;20083;-85
2021/05/01 05:08:40;;;;;;;7.32;5.20;;;;;;;;;;5017712;28;20026;-84
2021/05/01 05:11:06;;;;;;;8.40;5.90;;;;;;;;;;5043563;28;20029;-85
2021/05/01 05:13:32;;;;;;;15.38;6.30;;;;;;;;;;5028959;28;20128;-85
2021/05/01 05:15:58;;;;;;;10.32;4.53;;;;;;;;;;5031352;28;20159;-84
2021/05/01 05:18:25;;;;;;;11.20;4.65;;;;;;;;;;5030278;28;20390;-85
2021/05/01 05:20:51;;;;;;;8.55;4.35;;;;;;;;;;5015355;28;20391;-85
2021/05/01 05:23:17;;;;;;;10.00;4.88;;;;;;;;;;5017862;28;20029;-86
2021/05/01 05:25:43;;;;;;;6.93;4.60;;;;;;;;;;5017179;28;20050;-85
2021/05/01 05:28:09;;;;;;;11.90;5.75;;;;;;;;;;5015979;28;20510;-85
2021/05/01 05:30:35;;;;;;;7.20;4.65;;;;;;;;;;5028821;28;20538;-85
2021/05/01 05:33:01;;;;;;;10.13;6.38;;;;;;;;;;5028616;28;20116;-87
2021/05/01 05:35:27;;;;;;;8.02;4.65;;;;;;;;;;5030450;28;20128;-85
2021/05/01 05:37:53;;;;;;;9.32;4.88;;;;;;;;;;5021240;28;20512;-86
2021/05/01 05:40:19;;;;;;;11.30;5.80;;;;;;;;;;5017402;28;20030;-85
2021/05/01 05:42:49;;;;;;;13.63;6.43;;;;;;;;;;5017748;28;20021;-86
2021/05/01 05:45:22;;;;;;;11.60;7.15;;;;;;;;;;5013038;28;20042;-85
2021/05/01 05:47:48;;;;;;;14.13;5.50;;;;;;;;;;5028683;28;20069;-87
2021/05/01 05:50:14;;;;;;;9.50;4.35;;;;;;;;;;5026813;28;20034;-85
2021/05/01 05:52:40;;;;;;;8.20;4.18;;;;;;;;;;5030177;28;20021;-84
2021/05/01 05:55:07;;;;;;;22.10;11.30;;;;;;;;;;5020980;28;20107;-85
2021/05/01 05:57:33;;;;;;;15.73;7.40;;;;;;;;;;5015435;28;20062;-85
2021/05/01 05:59:59;;;;;;;10.77;5.22;;;;;;;;;;5026091;28;20124;-86
2021/05/01 06:02:26;;;;;;;10.63;6.18;;;11.40;65.70;;;;;;5016593;28;20574;-86
2021/05/01 06:04:56;;;;;;;9.70;5.68;;;;;;;;;;5024152;28;20509;-86
2021/05/01 06:07:34;;;;;;;14.57;5.00;;;11.40;69.70;;;;;;5027632;28;20049;-85
2021/05/01 06:10:06;;;;;;;9.88;6.20;;;11.60;65.40;;;;;;5039359;28;20052;-88
2021/05/01 06:12:33;;;;;;;18.25;6.97;;;11.60;64.90;;;;;;5028359;28;20038;-86
2021/05/01 06:15:02;;;;;;;13.32;5.32;;;;;;;;;;5030594;28;20099;-86
2021/05/01 06:17:28;;;;;;;11.50;5.63;;;;;;;;;;5026043;28;20033;-87
2021/05/01 06:19:55;;;;;;;7.93;4.95;;;;;;;;;;5019548;28;20048;-86
2021/05/01 06:22:21;;;;;;;15.02;6.03;;;;;;;;;;5036026;28;20026;-87
2021/05/01 06:24:47;;;;;;;14.32;6.70;;;;;;;;;;5015387;28;20044;-86
2021/05/01 06:27:16;;;;;;;7.78;6.07;;;11.60;65.30;;;;;;5030586;28;20022;-87
2021/05/01 06:29:44;;;;;;;9.25;6.50;;;11.60;65.40;;;;;;5027362;28;20025;-86
2021/05/01 06:32:12;;;;;;;13.13;6.85;;;11.70;65.40;;;;;;5026388;28;20113;-87
2021/05/01 06:34:38;;;;;;;5.43;3.85;;;;;;;;;;5022447;28;20081;-85
2021/05/01 06:37:04;;;;;;;10.85;5.85;;;;;;;;;;5018219;28;20112;-86
2021/05/01 06:39:36;;;;;;;9.32;5.35;;;;;;;;;;5014118;28;20386;-85
2021/05/01 06:42:04;;;;;;;8.55;4.50;;;11.50;66.80;;;;;;5013654;28;20041;-86
2021/05/01 06:44:36;;;;;;;12.77;5.53;;;;;;;;;;5015432;28;20088;-86
2021/05/01 06:47:02;;;;;;;11.48;5.13;;;;;;;;;;5015451;28;20066;-86
2021/05/01 06:49:33;;;;;;;12.52;6.40;;;11.50;66.80;;;;;;5016210;28;20058;-85
2021/05/01 06:52:03;;;;;;;10.18;5.25;;;;;;;;;;5010668;28;20034;-85
2021/05/01 06:54:30;;;;;;;9.35;4.35;;;11.60;65.60;;;;;;5020774;28;20066;-85
2021/05/01 06:56:56;;;;;;;9.07;5.20;;;;;;;;;;5026922;28;20454;-86
2021/05/01 06:59:23;;;;;;;12.88;5.40;;;;;;;;;;5022085;28;20073;-86
2021/05/01 07:01:49;;;;;;;15.18;7.40;;;;;;;;;;5025904;28;20167;-85
2021/05/01 07:04:16;;;;;;;12.57;5.10;;;;;;;;;;5025591;28;20025;-86
2021/05/01 07:06:43;;;;;;;12.52;5.38;;;11.40;67.70;;;;;;5025717;28;20049;-85
2021/05/01 07:09:09;;;;;;;11.57;5.45;;;;;;;;;;5025745;28;20046;-86
2021/05/01 07:11:35;;;;;;;9.00;4.40;;;;;;;;;;5025696;28;20022;-85
2021/05/01 07:14:03;;;;;;;11.52;5.50;;;11.60;66.50;;;;;;5026023;28;20025;-85
2021/05/01 07:16:29;;;;;;;10.75;6.07;;;;;;;;;;5025432;28;20056;-85
2021/05/01 07:19:00;;;;;;;8.00;4.20;;;;;;;;;;5024785;28;20037;-85
2021/05/01 07:21:26;;;;;;;8.15;4.43;;;;;;;;;;5025379;28;20056;-85
2021/05/01 07:23:52;;;;;;;9.18;5.50;;;;;;;;;;5026302;28;20502;-85
2021/05/01 07:26:22;;;;;;;12.52;4.63;;;11.70;65.40;;;;;;5026975;28;20030;-85
2021/05/01 07:28:51;;;;;;;5.80;3.33;;;11.90;65.20;;;;;;5024106;28;20021;-85
2021/05/01 07:31:22;;;;;;;7.53;4.80;;;12.10;63.40;;;;;;5023526;28;20120;-86
2021/05/01 07:33:53;;;;;;;6.93;4.13;;;12.10;63.30;;;;;;5041191;28;20137;-85
2021/05/01 07:36:20;;;;;;;6.78;3.58;;;;;;;;;;5025281;28;20053;-85
2021/05/01 07:38:46;;;;;;;;;;;12.00;63.50;;;;;;5025859;28;20552;-85
2021/05/01 07:41:14;;;;;;;8.07;3.50;;;12.00;62.50;;;;;;5024081;28;19917;-85
2021/05/01 07:43:48;;;;;;;8.45;4.57;;;12.00;63.50;;;;;;5026434;28;20029;-85
2021/05/01 07:46:15;;;;;;;8.18;3.97;;;;;;;;;;5018080;28;20478;-85
2021/05/01 07:48:41;;;;;;;12.45;4.35;;;12.10;62.90;;;;;;5023256;28;20689;-85
2021/05/01 07:51:08;;;;;;;5.13;3.30;;;;;;;;;;5024653;28;20121;-87
2021/05/01 07:53:34;;;;;;;7.75;3.42;;;;;;;;;;5016963;28;20115;-86
2021/05/01 07:56:00;;;;;;;9.18;4.90;;;;;;;;;;5024106;28;20038;-85
2021/05/01 07:58:26;;;;;;;8.43;3.85;;;;;;;;;;5021020;28;20099;-84
2021/05/01 08:00:52;;;;;;;5.72;3.50;;;;;;;;;;5024125;28;20498;-85
2021/05/01 08:03:19;;;;;;;10.65;4.43;;;;;;;;;;5027109;28;20076;-85
2021/05/01 08:05:45;;;;;;;7.15;4.07;;;;;;;;;;5026249;28;20021;-84
2021/05/01 08:08:11;;;;;;;5.72;3.70;;;;;;;;;;5018150;28;20033;-85
2021/05/01 08:10:37;;;;;;;4.68;3.35;;;;;;;;;;5020833;28;20033;-85
2021/05/01 08:13:03;;;;;;;7.40;4.05;;;;;;;;;;5020420;28;20087;-85
2021/05/01 08:15:33;;;;;;;5.78;3.53;;;;;;;;;;5023991;28;20038;-85
2021/05/01 08:17:59;;;;;;;5.85;3.63;;;;;;;;;;5019926;28;20056;-85
2021/05/01 08:20:25;;;;;;;6.95;4.05;;;;;;;;;;5022306;28;20029;-85
2021/05/01 08:22:52;;;;;;;9.77;4.47;;;;;;;;;;5022535;28;20048;-85
2021/05/01 08:25:18;;;;;;;7.13;3.67;;;;;;;;;;5022301;28;20029;-85
2021/05/01 08:27:44;;;;;;;10.57;4.05;;;;;;;;;;5022281;28;20028;-87
2021/05/01 08:30:14;;;;;;;8.38;4.65;;;12.10;64.00;;;;;;5021603;28;20041;-86
2021/05/01 08:32:40;;;;;;;14.85;5.50;;;;;;;;;;5027843;28;20512;-86
2021/05/01 08:35:06;;;;;;;6.50;3.88;;;;;;;;;;5023774;28;20038;-85
2021/05/01 08:37:32;;;;;;;7.47;4.53;;;;;;;;;;5023666;28;20045;-84
2021/05/01 08:39:58;;;;;;;6.80;4.90;;;;;;;;;;5017827;28;20025;-85
2021/05/01 08:42:25;;;;;;;5.57;3.70;;;;;;;;;;5021886;28;20017;-85
2021/05/01 08:44:51;;;;;;;7.53;4.07;;;;;;;;;;5024598;28;20302;-85
2021/05/01 08:47:17;;;;;;;5.63;3.47;;;;;;;;;;5023412;28;20027;-85
2021/05/01 08:49:43;;;;;;;7.50;3.05;;;;;;;;;;5019233;28;20056;-84
2021/05/01 08:52:09;;;;;;;6.75;3.72;;;;;;;;;;5023175;28;20029;-85
2021/05/01 08:54:35;;;;;;;7.80;3.55;;;;;;;;;;5023309;28;20033;-85
2021/05/01 08:57:03;;;;;;;8.57;4.53;;;11.70;63.50;;;;;;5025112;28;20669;-84
2021/05/01 08:59:30;;;;;;;9.95;3.90;;;;;;;;;;5022554;28;20068;-84
2021/05/01 09:01:56;;;;;;;5.05;3.05;;;;;;;;;;5025166;28;20065;-85
2021/05/01 09:04:23;;;;;;;5.30;3.10;;;;;;;;;;5024429;28;20064;-85
2021/05/01 09:06:50;;;;;;;8.30;2.92;;;;;;;;;;5024337;28;20041;-85
2021/05/01 09:09:16;;;;;;;10.40;4.13;;;;;;;;;;5024414;28;20401;-84
2021/05/01 09:11:45;;;;;;;5.68;3.20;;;11.90;63.70;;;;;;5030010;28;20038;-84
2021/05/01 09:14:22;;;;;;;5.45;3.25;;;12.00;62.60;;;;;;5026884;28;20033;-85
2021/05/01 09:17:01;;;;;;;7.80;3.28;;;12.00;69.80;;;;;;5023413;28;20100;-84
2021/05/01 09:19:34;;;;;;;5.13;3.85;;;12.30;61.80;;;;;;5025447;28;20045;-86
2021/05/01 09:22:01;;;;;;;9.07;3.35;;;;;;;;;;5025880;28;20029;-85
2021/05/01 09:24:27;;;;;;;6.18;3.08;;;;;;;;;;5027955;28;20025;-85
2021/05/01 09:26:53;;;;;;;5.93;3.22;;;;;;;;;;5028120;28;20060;-85
2021/05/01 09:29:37;;;;;;;6.63;3.58;;;12.10;63.00;;;;;;5021232;28;20026;-84
2021/05/01 09:32:04;;;;;;;7.50;3.55;;;;;;;;;;5026056;28;20121;-85
2021/05/01 09:34:46;;;;;;;;;;;12.20;62.20;;;;;;5026488;28;20564;-86
2021/05/01 09:37:12;;;;;;;5.60;3.15;;;;;;;;;;5023398;28;19925;-86
2021/05/01 09:39:59;;;;;;;5.28;2.83;;;11.80;66.00;;;;;;5021701;28;20025;-86
2021/05/01 09:42:27;;;;;;;4.57;2.55;;;;;;;;;;5027346;28;20026;-86
2021/05/01 09:45:07;;;;;;;6.72;3.42;;;11.90;62.40;;;;;;5026968;28;20029;-85
2021/05/01 09:47:34;;;;;;;3.85;2.85;;;;;;;;;;5026595;28;20390;-85
2021/05/01 09:50:00;;;;;;;5.10;2.60;;;;;;;;;;5021974;28;20579;-85
2021/05/01 09:52:26;;;;;;;4.22;3.15;;;;;;;;;;5023662;28;20025;-87
2021/05/01 09:54:52;;;;;;;5.63;2.58;;;;;;;;;;5027611;28;20045;-85
2021/05/01 09:57:19;;;;;;;7.75;3.60;;;;;;;;;;5025500;28;20037;-84
2021/05/01 09:59:49;;;;;;;4.05;2.42;;;;;;;;;;5021984;28;20029;-87
2021/05/01 10:02:16;;;;;;;6.80;3.35;;;;;;;;;;5030020;28;20037;-85
2021/05/01 10:05:04;;;;;;;5.20;3.33;;;11.70;63.30;;;;;;5028511;28;20415;-85
2021/05/01 10:07:31;;;;;;;3.28;2.65;;;11.60;64.40;;;;;;5023241;28;20061;-86
2021/05/01 10:09:58;;;;;;;6.78;3.35;;;;;;;;;;5025311;28;20498;-84
2021/05/01 10:12:34;;;;;;;4.40;2.10;;;;;;;;;;5027001;28;20044;-86
2021/05/01 10:15:00;;;;;;;4.75;3.33;;;;;;;;;;5026714;28;20518;-85
2021/05/01 10:17:29;;;;;;;6.75;2.58;;;;;;;;;;5027098;28;20512;-85
2021/05/01 10:20:05;;;;;;;4.43;2.97;;;12.10;63.90;;;;;;5039583;28;20179;-85
2021/05/01 10:22:36;;;;;;;5.18;2.90;;;12.20;63.10;;;;;;5022656;28;20088;-86
2021/05/01 10:25:06;;;;;;;5.85;2.47;;;;;;;;;;5024971;28;20037;-86
2021/05/01 10:27:42;;;;;;;2.45;1.92;;;12.60;63.40;;;;;;5026212;28;20033;-86
2021/05/01 10:30:39;;;;;;;4.53;2.53;;;12.80;61.90;;;;;;5022918;28;20082;-85
2021/05/01 10:33:20;;;;;;;3.75;1.95;;;12.90;70.30;;;;;;5025435;28;20113;-86
2021/05/01 10:36:07;;;;;;;3.88;2.38;;;12.80;62.20;;;;;;5027269;28;20112;-85
2021/05/01 10:38:33;;;;;;;2.10;1.88;;;;;;;;;;5021439;28;20445;-84
2021/05/01 10:41:04;;;;;;;3.55;2.35;;;13.10;60.00;;;;;;5021874;28;20068;-85
2021/05/01 10:43:36;;;;;;;4.38;1.75;;;;;;;;;;5025365;28;20108;-85
2021/05/01 10:46:06;;;;;;;2.40;2.13;;;12.90;60.00;;;;;;5024648;28;20079;-85
2021/05/01 10:49:05;;;;;;;3.88;1.92;;;12.90;60.70;;;;;;5021791;28;20040;-85
2021/05/01 10:51:39;;;;;;;1.65;1.30;;;12.60;60.70;;;;;;5025223;28;20889;-85
2021/05/01 10:54:12;;;;;;;2.38;2.00;;;12.70;65.00;;;;;;5025152;28;20029;-85
2021/05/01 10:56:45;;;;;;;4.70;2.60;;;;;;;;;;5027430;28;20116;-85
2021/05/01 10:59:21;;;;;;;2.83;1.83;;;12.90;60.60;;;;;;5019775;28;20017;-85
2021/05/01 11:01:50;;;;;;;4.20;2.28;;;12.80;61.00;;;;;;5040128;28;20727;-84
2021/05/01 11:04:15;;;;;;;3.80;1.98;;;;;;;;;;5022524;28;20065;-85
2021/05/01 11:07:15;;;;;;;4.55;2.30;;;12.70;59.90;;;;;;5025467;28;20326;-85
2021/05/01 11:09:45;;;;;;;3.33;2.15;;;;;;;;;;5018922;28;20109;-85
2021/05/01 11:12:17;;;;;;;3.08;2.38;;;12.50;62.10;;;;;;5021835;28;26976;-85
2021/05/01 11:14:47;;;;;;;3.28;2.33;;;12.50;63.20;;;;;;5024559;28;20121;-86
2021/05/01 11:17:34;;;;;;;3.85;2.22;;;12.60;63.30;;;;;;5019097;28;20105;-84
2021/05/01 11:20:03;;;;;;;3.13;1.98;;;;;;;;;;5021581;28;20026;-85
2021/05/01 11:22:29;;;;;;;3.80;2.05;;;;;;;;;;5022719;28;20030;-86
2021/05/01 11:24:55;;;;;;;3.28;1.73;;;;;;;;;;5023772;28;20059;-85
2021/05/01 11:27:21;;;;;;;3.80;2.45;;;;;;;;;;5023276;28;20049;-85
2021/05/01 11:29:47;;;;;;;2.78;2.03;;;;;;;;;;5022613;28;20025;-85
2021/05/01 11:32:13;;;;;;;3.58;2.15;;;;;;;;;;5022141;28;20025;-85
2021/05/01 11:34:39;;;;;;;1.63;1.52;;;;;;;;;;5021665;28;20124;-84
2021/05/01 11:37:07;;;;;;;3.40;1.67;;;13.00;58.00;;;;;;5018318;28;20466;-85
2021/05/01 11:39:41;;;;;;;1.75;1.10;;;13.00;59.10;;;;;;5018165;28;20113;-85
2021/05/01 11:42:07;;;;;;;2.35;1.48;;;;;;;;;;5024685;28;20061;-85
2021/05/01 11:44:33;;;;;;;3.17;1.50;;;;;;;;;;5027174;28;20075;-86
2021/05/01 11:47:02;;;;;;;4.88;1.55;;;;;;;;;;5024764;28;20029;-85
2021/05/01 11:49:29;;;;;;;2.70;1.30;;;;;;;;;;5022407;28;20029;-85
2021/05/01 11:51:55;;;;;;;1.65;1.20;;;;;;;;;;5024902;28;20048;-85
2021/05/01 11:54:33;;;;;;;1.75;1.10;;;;;;;;;;5025187;28;20494;-86
2021/05/01 11:57:24;;;;;;;1.00;0.73;;;12.90;59.20;;;;;;5024898;28;20025;-85
2021/05/01 11:59:52;;;;;;;1.13;1.08;;;12.90;59.00;;;;;;5020841;28;20603;-85
2021/05/01 12:02:21;;;;;;;1.63;1.20;;;12.80;61.60;;;;;;5025301;28;20033;-84
2021/05/01 12:04:56;;;;;;;1.83;0.90;;;;;;;;;;5027254;28;20033;-84
2021/05/01 12:07:52;;;;;;;1.95;1.10;;;12.80;60.10;;;;;;5023022;28;20051;-85
2021/05/01 12:10:19;;;;;;;1.38;1.15;;;;;;;;;;5018553;28;20423;-84
2021/05/01 12:13:06;;;;;;;1.35;1.00;;;15.10;61.70;;;;;;5031483;28;20040;-85
2021/05/01 12:15:35;;;;;;;1.50;1.13;;;;;;;;;;5023462;28;20038;-85
2021/05/01 12:18:02;;;;;;;1.88;1.77;;;;;;;;;;5024197;28;20057;-87
2021/05/01 12:20:29;;;;;;;5.00;2.42;;;;;;;;;;5027024;28;20572;-85
2021/05/01 12:23:01;;;;;;;3.78;1.73;;;12.90;63.10;;;;;;5026719;28;20025;-86
2021/05/01 12:25:30;;;;;;;2.05;1.55;;;;;;;;;;5022974;28;20398;-88
2021/05/01 12:27:58;;;;;;;2.22;1.20;;;12.90;60.90;;;;;;5011499;28;20117;-88
2021/05/01 12:30:43;;;;;;;2.10;1.45;;;;;;;;;;5027665;28;20076;-90
2021/05/01 12:33:27;;;;;;;3.80;1.88;;;12.80;61.30;;;;;;5027135;28;20040;-86
2021/05/01 12:35:55;;;;;;;1.95;1.05;;;12.90;61.80;;;;;;5024366;28;20044;-87
2021/05/01 12:38:23;;;;;;;1.20;0.82;;;;;;;;;;5021129;28;20060;-90
2021/05/01 12:40:50;;;;;;;2.13;0.85;;;13.00;60.00;;;;;;5030429;28;20049;-89
2021/05/01 12:43:28;;;;;;;1.23;0.93;;;13.00;59.80;;;;;;5027202;28;20510;-86
2021/05/01 12:45:55;;;;;;;2.33;1.30;;;;;;;;;;5028815;28;20034;-87
2021/05/01 12:48:43;;;;;;;1.83;1.00;;;13.00;59.70;;;;;;5026721;28;20033;-86
2021/05/01 12:51:20;;;;;;;1.42;1.33;;;12.80;59.60;;;;;;5032481;28;20053;-88
2021/05/01 12:53:47;;;;;;;1.75;1.58;;;;;;;;;;5044797;28;20116;-89
2021/05/01 12:56:13;;;;;;;1.03;0.93;;;;;;;;;;5030521;28;20391;-89
2021/05/01 12:58:39;;;;;;;1.65;0.80;;;;;;;;;;5028031;28;20045;-88
2021/05/01 13:01:21;;;;;;;1.38;0.93;;;13.10;59.20;;;;;;5040262;28;20395;-88
2021/05/01 13:04:22;;;;;;;0.80;0.60;;;13.00;60.10;;;;;;5039655;28;20030;-89
2021/05/01 13:06:51;;;;;;;1.08;0.55;;;;;;;;;;5044726;28;20540;-88
2021/05/01 13:09:18;;;;;;;0.93;0.73;;;12.90;57.10;;;;;;5027167;28;20112;-89
2021/05/01 13:11:45;;;;;;;1.90;0.52;;;;;;;;;;5031753;28;20393;-87
2021/05/01 13:14:18;;;;;;;1.83;1.20;;;12.70;59.80;;;;;;5032628;28;20120;-91
2021/05/01 13:17:03;;;;;;;1.38;0.88;;;;;;;;;;5034535;28;20033;-92
2021/05/01 13:19:30;;;;;;;1.63;1.17;;;12.70;61.40;;;;;;5027623;28;20120;-90
2021/05/01 13:22:01;;;;;;;;;;;12.90;61.10;;;;;;5033258;28;20061;-92
2021/05/01 13:24:33;;;;;;;0.80;0.80;;;;;;;;;;5033922;28;19913;-91
2021/05/01 13:27:00;;;;;;;1.42;1.17;;;13.10;61.50;;;;;;5034521;28;20120;-89
2021/05/01 13:29:29;;;;;;;2.38;2.13;;;;;;;;;;5029016;28;20028;-93
2021/05/01 13:31:56;;;;;;;1.63;1.08;;;;;;;;;;5036029;28;20034;-92
2021/05/01 13:34:22;;;;;;;1.35;1.02;;;;;;;;;;5038140;28;20076;-91
2021/05/01 13:36:48;;;;;;;1.90;1.20;;;;;;;;;;5033910;28;20029;-91
2021/05/01 13:39:34;;;;;;;1.55;1.30;;;;;;;;;;5028715;28;20517;-90
2021/05/01 13:42:07;;;;;;;2.75;1.42;;;;;;;;;;5049112;28;20021;-92
2021/05/01 13:44:46;;;;;;;1.08;0.95;;;;;;;;;;5034075;28;20128;-93
2021/05/01 13:47:23;;;;;;;2.65;1.30;;;;;;;;;;5032394;28;20061;-92
2021/05/01 13:49:53;;;;;;;1.25;0.88;;;;;;;;;;5030014;28;20180;-90
2021/05/01 13:52:38;;;;;;;1.08;0.98;;;;;;;;;;5032967;28;20057;-90
2021/05/01 13:55:16;;;;;;;4.40;1.48;;;;;;;;;;5032228;28;20042;-91
2021/05/01 13:57:42;;;;;;;2.45;0.98;;;;;;;;;;5034637;28;20034;-92
2021/05/01 14:00:12;;;;;;;7.28;1.25;;;13.10;60.40;;;;;;5031634;28;20028;-91
2021/05/01 14:02:46;;;;;;;1.48;1.30;;;13.00;62.30;;;;;;5033054;28;20116;-91
2021/05/01 14:05:15;;;;;;;1.25;0.95;;;13.00;61.60;;;;;;5034015;28;20041;-91
2021/05/01 14:07:41;;;;;;;1.85;1.13;;;;;;;;;;5032282;28;20117;-90
2021/05/01 14:10:10;;;;;;;1.42;0.65;;;13.00;59.50;;;;;;5028378;28;20083;-91
2021/05/01 14:12:36;;;;;;;0.95;0.75;;;13.20;59.60;;;;;;5031206;28;20017;-91
2021/05/01 14:15:06;;;;;;;1.70;1.10;;;13.10;60.30;;;;;;5032840;28;20497;-92